Hartford, Maine
Current Conditions -  °F | °C
As of 2:55 AM on Monday 24 Nov 2014 (Local Time) from KLEW Reporting Station
Overcast Overcast  
Wind Chill: 32°   Ceiling: 200
Heat Index: 32°   Visibility: 8mi
Dew Point: 28°   Wind: 0mph
Humidity: 87%   Direction: NA
Pressure: 30.04"   Gusts: NA
Location:  44.2833°N, 70.3688°W
Report Text: KLEW 240755Z AUTO 00000KT 8SM OVC002 00/M02 A3004 RMK AO1
Loading
Personal Weather Stations






























Interactive Weather Map New forecast layout! Learn more

10-Day Weather Forecast

Advertisements
Track Severe Weather on mobile